sensor_id;sensor_type;location;lat;lon;timestamp;P1;durP1;ratioP1;P2;durP2;ratioP2
3022;SDS011;1521;53.584;9.938;2022-10-31T00:01:54;57.57;;;32.77;;
3022;SDS011;1521;53.584;9.938;2022-10-31T00:04:19;65.33;;;33.37;;
3022;SDS011;1521;53.584;9.938;2022-10-31T00:06:45;69.93;;;32.90;;
3022;SDS011;1521;53.584;9.938;2022-10-31T00:09:10;66.50;;;31.10;;
3022;SDS011;1521;53.584;9.938;2022-10-31T00:11:36;53.80;;;31.90;;
3022;SDS011;1521;53.584;9.938;2022-10-31T00:14:02;67.70;;;31.90;;
3022;SDS011;1521;53.584;9.938;2022-10-31T00:16:28;59.73;;;30.47;;
3022;SDS011;1521;53.584;9.938;2022-10-31T00:18:55;62.40;;;31.70;;
3022;SDS011;1521;53.584;9.938;2022-10-31T00:21:23;50.13;;;28.40;;
3022;SDS011;1521;53.584;9.938;2022-10-31T00:23:49;51.23;;;30.10;;
3022;SDS011;1521;53.584;9.938;2022-10-31T00:26:15;55.70;;;31.37;;
3022;SDS011;1521;53.584;9.938;2022-10-31T00:28:41;60.23;;;31.60;;
3022;SDS011;1521;53.584;9.938;2022-10-31T00:31:08;59.57;;;30.47;;
3022;SDS011;1521;53.584;9.938;2022-10-31T00:33:35;65.90;;;33.73;;
3022;SDS011;1521;53.584;9.938;2022-10-31T00:36:02;60.77;;;31.07;;
3022;SDS011;1521;53.584;9.938;2022-10-31T00:38:29;58.87;;;31.57;;
3022;SDS011;1521;53.584;9.938;2022-10-31T00:40:54;66.97;;;30.97;;
3022;SDS011;1521;53.584;9.938;2022-10-31T00:43:20;53.43;;;30.80;;
3022;SDS011;1521;53.584;9.938;2022-10-31T00:45:46;62.83;;;34.33;;
3022;SDS011;1521;53.584;9.938;2022-10-31T00:48:11;56.73;;;32.07;;
3022;SDS011;1521;53.584;9.938;2022-10-31T00:50:37;54.17;;;28.57;;
3022;SDS011;1521;53.584;9.938;2022-10-31T00:53:03;58.40;;;30.50;;
3022;SDS011;1521;53.584;9.938;2022-10-31T00:55:29;55.97;;;32.77;;
3022;SDS011;1521;53.584;9.938;2022-10-31T00:57:55;59.20;;;30.70;;
3022;SDS011;1521;53.584;9.938;2022-10-31T01:00:21;54.40;;;29.83;;
3022;SDS011;1521;53.584;9.938;2022-10-31T01:02:47;60.53;;;32.63;;
3022;SDS011;1521;53.584;9.938;2022-10-31T01:05:12;63.83;;;33.70;;
3022;SDS011;1521;53.584;9.938;2022-10-31T01:07:38;66.20;;;32.10;;
3022;SDS011;1521;53.584;9.938;2022-10-31T01:10:05;65.30;;;34.70;;
3022;SDS011;1521;53.584;9.938;2022-10-31T01:12:38;60.67;;;33.13;;
3022;SDS011;1521;53.584;9.938;2022-10-31T01:15:05;70.07;;;37.40;;
3022;SDS011;1521;53.584;9.938;2022-10-31T01:17:31;72.57;;;36.10;;
3022;SDS011;1521;53.584;9.938;2022-10-31T01:19:56;64.53;;;35.07;;
3022;SDS011;1521;53.584;9.938;2022-10-31T01:22:22;82.57;;;37.30;;
3022;SDS011;1521;53.584;9.938;2022-10-31T01:24:48;63.33;;;34.57;;
3022;SDS011;1521;53.584;9.938;2022-10-31T01:27:13;68.83;;;34.33;;
3022;SDS011;1521;53.584;9.938;2022-10-31T01:29:39;80.23;;;37.13;;
3022;SDS011;1521;53.584;9.938;2022-10-31T01:32:04;63.60;;;35.67;;
3022;SDS011;1521;53.584;9.938;2022-10-31T01:34:30;65.47;;;36.80;;
3022;SDS011;1521;53.584;9.938;2022-10-31T01:36:56;73.47;;;37.37;;
3022;SDS011;1521;53.584;9.938;2022-10-31T01:39:21;71.53;;;37.50;;
3022;SDS011;1521;53.584;9.938;2022-10-31T01:41:48;62.53;;;34.77;;
3022;SDS011;1521;53.584;9.938;2022-10-31T01:49:34;73.23;;;36.37;;
3022;SDS011;1521;53.584;9.938;2022-10-31T01:54:45;67.23;;;36.80;;
3022;SDS011;1521;53.584;9.938;2022-10-31T01:57:16;77.73;;;36.00;;
3022;SDS011;1521;53.584;9.938;2022-10-31T01:59:46;73.53;;;35.33;;
3022;SDS011;1521;53.584;9.938;2022-10-31T02:02:14;73.70;;;37.00;;
3022;SDS011;1521;53.584;9.938;2022-10-31T02:04:42;74.33;;;35.50;;
3022;SDS011;1521;53.584;9.938;2022-10-31T02:07:10;67.60;;;36.27;;
3022;SDS011;1521;53.584;9.938;2022-10-31T02:09:38;77.53;;;37.13;;
3022;SDS011;1521;53.584;9.938;2022-10-31T02:12:05;70.23;;;35.50;;
3022;SDS011;1521;53.584;9.938;2022-10-31T02:14:31;75.07;;;35.67;;
3022;SDS011;1521;53.584;9.938;2022-10-31T02:16:58;67.53;;;35.53;;
3022;SDS011;1521;53.584;9.938;2022-10-31T02:22:09;76.90;;;35.07;;
3022;SDS011;1521;53.584;9.938;2022-10-31T02:30:22;68.73;;;34.90;;
3022;SDS011;1521;53.584;9.938;2022-10-31T02:32:54;80.77;;;36.20;;
3022;SDS011;1521;53.584;9.938;2022-10-31T02:41:24;85.10;;;37.30;;
3022;SDS011;1521;53.584;9.938;2022-10-31T02:44:06;76.33;;;38.13;;
3022;SDS011;1521;53.584;9.938;2022-10-31T02:47:03;82.40;;;39.27;;
3022;SDS011;1521;53.584;9.938;2022-10-31T02:52:13;82.73;;;37.70;;
3022;SDS011;1521;53.584;9.938;2022-10-31T02:54:46;83.00;;;37.60;;
3022;SDS011;1521;53.584;9.938;2022-10-31T02:57:12;83.00;;;38.90;;
3022;SDS011;1521;53.584;9.938;2022-10-31T02:59:44;87.60;;;37.87;;
3022;SDS011;1521;53.584;9.938;2022-10-31T03:02:18;78.97;;;36.63;;
3022;SDS011;1521;53.584;9.938;2022-10-31T03:07:45;82.83;;;37.70;;
3022;SDS011;1521;53.584;9.938;2022-10-31T03:16:10;82.27;;;39.53;;
3022;SDS011;1521;53.584;9.938;2022-10-31T03:18:48;84.00;;;37.17;;
3022;SDS011;1521;53.584;9.938;2022-10-31T03:21:39;75.07;;;37.30;;
3022;SDS011;1521;53.584;9.938;2022-10-31T03:24:16;81.43;;;34.97;;
3022;SDS011;1521;53.584;9.938;2022-10-31T03:26:45;82.73;;;38.30;;
3022;SDS011;1521;53.584;9.938;2022-10-31T03:29:15;83.10;;;38.00;;
3022;SDS011;1521;53.584;9.938;2022-10-31T03:31:54;87.97;;;38.90;;
3022;SDS011;1521;53.584;9.938;2022-10-31T03:34:27;91.50;;;37.77;;
3022;SDS011;1521;53.584;9.938;2022-10-31T03:36:56;81.23;;;36.83;;
3022;SDS011;1521;53.584;9.938;2022-10-31T03:39:26;90.57;;;38.53;;
3022;SDS011;1521;53.584;9.938;2022-10-31T03:41:59;88.77;;;38.17;;
3022;SDS011;1521;53.584;9.938;2022-10-31T03:44:29;90.23;;;38.67;;
3022;SDS011;1521;53.584;9.938;2022-10-31T03:46:57;87.40;;;39.20;;
3022;SDS011;1521;53.584;9.938;2022-10-31T03:49:23;86.27;;;39.50;;
3022;SDS011;1521;53.584;9.938;2022-10-31T03:57:00;90.60;;;39.00;;
3022;SDS011;1521;53.584;9.938;2022-10-31T03:59:36;95.13;;;38.03;;
3022;SDS011;1521;53.584;9.938;2022-10-31T04:02:08;91.53;;;40.03;;
3022;SDS011;1521;53.584;9.938;2022-10-31T04:04:39;88.03;;;40.50;;
3022;SDS011;1521;53.584;9.938;2022-10-31T04:07:05;98.70;;;41.33;;
3022;SDS011;1521;53.584;9.938;2022-10-31T04:09:33;105.93;;;39.40;;
3022;SDS011;1521;53.584;9.938;2022-10-31T04:12:01;86.37;;;38.97;;
3022;SDS011;1521;53.584;9.938;2022-10-31T04:14:31;91.17;;;39.30;;
3022;SDS011;1521;53.584;9.938;2022-10-31T04:16:58;105.43;;;40.93;;
3022;SDS011;1521;53.584;9.938;2022-10-31T04:19:25;93.03;;;38.73;;
3022;SDS011;1521;53.584;9.938;2022-10-31T04:21:51;96.60;;;40.60;;
3022;SDS011;1521;53.584;9.938;2022-10-31T04:24:17;91.00;;;39.97;;
3022;SDS011;1521;53.584;9.938;2022-10-31T04:26:42;94.90;;;38.27;;
3022;SDS011;1521;53.584;9.938;2022-10-31T04:29:08;94.33;;;41.50;;
3022;SDS011;1521;53.584;9.938;2022-10-31T04:31:33;90.33;;;37.70;;
3022;SDS011;1521;53.584;9.938;2022-10-31T04:33:59;98.17;;;40.93;;
3022;SDS011;1521;53.584;9.938;2022-10-31T04:36:25;103.70;;;40.67;;
3022;SDS011;1521;53.584;9.938;2022-10-31T04:38:50;88.83;;;38.37;;
3022;SDS011;1521;53.584;9.938;2022-10-31T04:41:16;93.13;;;40.50;;
3022;SDS011;1521;53.584;9.938;2022-10-31T04:43:41;101.37;;;40.40;;
3022;SDS011;1521;53.584;9.938;2022-10-31T04:46:07;105.53;;;40.53;;
3022;SDS011;1521;53.584;9.938;2022-10-31T04:48:32;100.97;;;40.50;;
3022;SDS011;1521;53.584;9.938;2022-10-31T04:51:01;105.97;;;41.00;;
3022;SDS011;1521;53.584;9.938;2022-10-31T04:53:27;107.37;;;40.77;;
3022;SDS011;1521;53.584;9.938;2022-10-31T04:55:53;99.30;;;38.77;;
3022;SDS011;1521;53.584;9.938;2022-10-31T04:58:19;90.83;;;37.43;;
3022;SDS011;1521;53.584;9.938;2022-10-31T05:00:44;87.27;;;37.73;;
3022;SDS011;1521;53.584;9.938;2022-10-31T05:03:10;96.63;;;40.73;;
3022;SDS011;1521;53.584;9.938;2022-10-31T05:05:36;95.00;;;37.73;;
3022;SDS011;1521;53.584;9.938;2022-10-31T05:08:01;92.70;;;36.77;;
3022;SDS011;1521;53.584;9.938;2022-10-31T05:10:28;90.73;;;37.17;;
3022;SDS011;1521;53.584;9.938;2022-10-31T05:12:55;92.77;;;36.90;;
3022;SDS011;1521;53.584;9.938;2022-10-31T05:15:23;107.97;;;38.10;;
3022;SDS011;1521;53.584;9.938;2022-10-31T05:17:50;91.57;;;36.90;;
3022;SDS011;1521;53.584;9.938;2022-10-31T05:20:17;88.47;;;37.07;;
3022;SDS011;1521;53.584;9.938;2022-10-31T05:22:44;104.60;;;37.30;;
3022;SDS011;1521;53.584;9.938;2022-10-31T05:25:11;99.37;;;36.70;;
3022;SDS011;1521;53.584;9.938;2022-10-31T05:27:38;91.53;;;34.87;;
3022;SDS011;1521;53.584;9.938;2022-10-31T05:30:05;107.77;;;36.33;;
3022;SDS011;1521;53.584;9.938;2022-10-31T05:32:36;92.93;;;36.10;;
3022;SDS011;1521;53.584;9.938;2022-10-31T05:35:03;106.33;;;36.20;;
3022;SDS011;1521;53.584;9.938;2022-10-31T05:37:28;93.70;;;33.77;;
3022;SDS011;1521;53.584;9.938;2022-10-31T05:39:54;123.40;;;37.73;;
3022;SDS011;1521;53.584;9.938;2022-10-31T05:42:19;123.97;;;36.47;;
3022;SDS011;1521;53.584;9.938;2022-10-31T05:44:45;106.33;;;33.47;;
3022;SDS011;1521;53.584;9.938;2022-10-31T05:47:11;92.37;;;34.93;;
3022;SDS011;1521;53.584;9.938;2022-10-31T05:49:37;102.97;;;34.60;;
3022;SDS011;1521;53.584;9.938;2022-10-31T05:52:03;96.70;;;33.40;;
3022;SDS011;1521;53.584;9.938;2022-10-31T05:54:29;102.97;;;35.63;;
3022;SDS011;1521;53.584;9.938;2022-10-31T05:56:54;106.50;;;35.13;;
3022;SDS011;1521;53.584;9.938;2022-10-31T05:59:20;101.10;;;35.30;;
3022;SDS011;1521;53.584;9.938;2022-10-31T06:01:45;98.47;;;33.27;;
3022;SDS011;1521;53.584;9.938;2022-10-31T06:04:11;100.67;;;33.60;;
3022;SDS011;1521;53.584;9.938;2022-10-31T06:06:37;129.20;;;36.43;;
3022;SDS011;1521;53.584;9.938;2022-10-31T06:09:02;116.17;;;37.80;;
3022;SDS011;1521;53.584;9.938;2022-10-31T06:11:28;95.43;;;33.43;;
3022;SDS011;1521;53.584;9.938;2022-10-31T06:13:53;104.23;;;35.70;;
3022;SDS011;1521;53.584;9.938;2022-10-31T06:16:19;101.90;;;35.10;;
3022;SDS011;1521;53.584;9.938;2022-10-31T06:18:45;89.40;;;33.63;;
3022;SDS011;1521;53.584;9.938;2022-10-31T06:21:11;109.90;;;36.53;;
3022;SDS011;1521;53.584;9.938;2022-10-31T06:23:37;93.10;;;35.20;;
3022;SDS011;1521;53.584;9.938;2022-10-31T06:26:02;105.23;;;35.83;;
3022;SDS011;1521;53.584;9.938;2022-10-31T06:28:28;86.17;;;32.00;;
3022;SDS011;1521;53.584;9.938;2022-10-31T06:30:53;81.63;;;32.40;;
3022;SDS011;1521;53.584;9.938;2022-10-31T06:33:19;91.43;;;34.00;;
3022;SDS011;1521;53.584;9.938;2022-10-31T06:35:45;84.60;;;33.40;;
3022;SDS011;1521;53.584;9.938;2022-10-31T06:38:12;109.60;;;36.87;;
3022;SDS011;1521;53.584;9.938;2022-10-31T06:40:37;107.63;;;35.70;;
3022;SDS011;1521;53.584;9.938;2022-10-31T06:43:03;85.00;;;31.23;;
3022;SDS011;1521;53.584;9.938;2022-10-31T06:45:29;86.20;;;33.90;;
3022;SDS011;1521;53.584;9.938;2022-10-31T06:47:54;104.13;;;36.13;;
3022;SDS011;1521;53.584;9.938;2022-10-31T06:50:21;79.90;;;33.30;;
3022;SDS011;1521;53.584;9.938;2022-10-31T06:52:51;97.47;;;38.37;;
3022;SDS011;1521;53.584;9.938;2022-10-31T06:55:21;94.20;;;39.30;;
3022;SDS011;1521;53.584;9.938;2022-10-31T06:57:54;104.03;;;37.90;;
3022;SDS011;1521;53.584;9.938;2022-10-31T07:00:22;86.23;;;35.70;;
3022;SDS011;1521;53.584;9.938;2022-10-31T07:03:01;82.77;;;35.60;;
3022;SDS011;1521;53.584;9.938;2022-10-31T07:05:31;75.13;;;33.80;;
3022;SDS011;1521;53.584;9.938;2022-10-31T07:08:01;88.77;;;34.63;;
3022;SDS011;1521;53.584;9.938;2022-10-31T07:10:29;85.03;;;33.50;;
3022;SDS011;1521;53.584;9.938;2022-10-31T07:12:57;92.30;;;32.33;;
3022;SDS011;1521;53.584;9.938;2022-10-31T07:15:25;104.33;;;34.03;;
3022;SDS011;1521;53.584;9.938;2022-10-31T07:17:52;116.03;;;34.37;;
3022;SDS011;1521;53.584;9.938;2022-10-31T07:20:18;93.63;;;32.40;;
3022;SDS011;1521;53.584;9.938;2022-10-31T07:22:44;84.10;;;28.53;;
3022;SDS011;1521;53.584;9.938;2022-10-31T07:25:10;59.20;;;29.43;;
3022;SDS011;1521;53.584;9.938;2022-10-31T07:27:40;157.90;;;30.20;;
3022;SDS011;1521;53.584;9.938;2022-10-31T07:30:06;73.23;;;26.80;;
3022;SDS011;1521;53.584;9.938;2022-10-31T07:32:40;52.90;;;26.63;;
3022;SDS011;1521;53.584;9.938;2022-10-31T07:35:11;93.30;;;28.50;;
3022;SDS011;1521;53.584;9.938;2022-10-31T07:37:39;77.27;;;27.93;;
3022;SDS011;1521;53.584;9.938;2022-10-31T07:40:05;65.83;;;26.50;;
3022;SDS011;1521;53.584;9.938;2022-10-31T07:42:35;78.33;;;25.60;;
3022;SDS011;1521;53.584;9.938;2022-10-31T07:45:02;62.20;;;27.03;;
3022;SDS011;1521;53.584;9.938;2022-10-31T07:47:29;61.63;;;26.77;;
3022;SDS011;1521;53.584;9.938;2022-10-31T07:49:54;78.10;;;28.90;;
3022;SDS011;1521;53.584;9.938;2022-10-31T07:52:20;59.13;;;27.67;;
3022;SDS011;1521;53.584;9.938;2022-10-31T07:54:45;75.07;;;26.20;;
3022;SDS011;1521;53.584;9.938;2022-10-31T07:57:11;59.10;;;26.70;;
3022;SDS011;1521;53.584;9.938;2022-10-31T07:59:37;63.17;;;25.60;;
3022;SDS011;1521;53.584;9.938;2022-10-31T08:02:02;66.87;;;26.60;;
3022;SDS011;1521;53.584;9.938;2022-10-31T08:04:28;69.87;;;26.40;;
3022;SDS011;1521;53.584;9.938;2022-10-31T08:06:53;50.20;;;23.30;;
3022;SDS011;1521;53.584;9.938;2022-10-31T08:09:19;49.67;;;24.43;;
3022;SDS011;1521;53.584;9.938;2022-10-31T08:11:44;70.83;;;25.17;;
3022;SDS011;1521;53.584;9.938;2022-10-31T08:14:10;63.33;;;26.00;;
3022;SDS011;1521;53.584;9.938;2022-10-31T08:16:35;66.20;;;25.03;;
3022;SDS011;1521;53.584;9.938;2022-10-31T08:19:01;37.63;;;23.03;;
3022;SDS011;1521;53.584;9.938;2022-10-31T08:21:27;52.37;;;23.50;;
3022;SDS011;1521;53.584;9.938;2022-10-31T08:23:52;45.20;;;25.17;;
3022;SDS011;1521;53.584;9.938;2022-10-31T08:26:18;41.23;;;24.67;;
3022;SDS011;1521;53.584;9.938;2022-10-31T08:28:43;45.90;;;24.20;;
3022;SDS011;1521;53.584;9.938;2022-10-31T08:31:09;51.53;;;24.60;;
3022;SDS011;1521;53.584;9.938;2022-10-31T08:33:35;52.83;;;26.97;;
3022;SDS011;1521;53.584;9.938;2022-10-31T08:36:00;59.03;;;27.03;;
3022;SDS011;1521;53.584;9.938;2022-10-31T08:38:26;43.37;;;21.83;;
3022;SDS011;1521;53.584;9.938;2022-10-31T08:40:52;43.97;;;22.73;;
3022;SDS011;1521;53.584;9.938;2022-10-31T08:43:18;43.00;;;19.93;;
3022;SDS011;1521;53.584;9.938;2022-10-31T08:45:44;39.97;;;21.47;;
3022;SDS011;1521;53.584;9.938;2022-10-31T08:48:13;44.20;;;25.00;;
3022;SDS011;1521;53.584;9.938;2022-10-31T08:50:40;47.27;;;24.30;;
3022;SDS011;1521;53.584;9.938;2022-10-31T08:53:08;43.13;;;25.10;;
3022;SDS011;1521;53.584;9.938;2022-10-31T08:55:36;37.03;;;21.20;;
3022;SDS011;1521;53.584;9.938;2022-10-31T08:58:04;46.23;;;23.37;;
3022;SDS011;1521;53.584;9.938;2022-10-31T09:00:31;40.23;;;23.07;;
3022;SDS011;1521;53.584;9.938;2022-10-31T09:02:59;46.63;;;22.00;;
3022;SDS011;1521;53.584;9.938;2022-10-31T09:05:29;42.63;;;23.10;;
3022;SDS011;1521;53.584;9.938;2022-10-31T09:07:56;46.60;;;22.97;;
3022;SDS011;1521;53.584;9.938;2022-10-31T09:10:22;39.50;;;21.20;;
3022;SDS011;1521;53.584;9.938;2022-10-31T09:12:58;38.50;;;21.63;;
3022;SDS011;1521;53.584;9.938;2022-10-31T09:15:26;41.80;;;19.47;;
3022;SDS011;1521;53.584;9.938;2022-10-31T09:17:52;35.23;;;18.20;;
3022;SDS011;1521;53.584;9.938;2022-10-31T09:20:18;38.67;;;18.57;;
3022;SDS011;1521;53.584;9.938;2022-10-31T09:22:44;39.57;;;20.93;;
3022;SDS011;1521;53.584;9.938;2022-10-31T09:25:10;43.10;;;20.50;;
3022;SDS011;1521;53.584;9.938;2022-10-31T09:27:36;34.70;;;19.73;;
3022;SDS011;1521;53.584;9.938;2022-10-31T09:30:02;35.30;;;20.60;;
3022;SDS011;1521;53.584;9.938;2022-10-31T09:32:28;43.60;;;22.47;;
3022;SDS011;1521;53.584;9.938;2022-10-31T09:34:54;43.10;;;22.20;;
3022;SDS011;1521;53.584;9.938;2022-10-31T09:37:20;44.13;;;20.93;;
3022;SDS011;1521;53.584;9.938;2022-10-31T09:39:45;41.63;;;22.03;;
3022;SDS011;1521;53.584;9.938;2022-10-31T09:42:25;43.17;;;22.23;;
3022;SDS011;1521;53.584;9.938;2022-10-31T09:47:49;32.00;;;18.70;;
3022;SDS011;1521;53.584;9.938;2022-10-31T09:50:30;35.53;;;19.50;;
3022;SDS011;1521;53.584;9.938;2022-10-31T09:53:05;56.23;;;19.63;;
3022;SDS011;1521;53.584;9.938;2022-10-31T09:55:42;41.67;;;21.70;;
3022;SDS011;1521;53.584;9.938;2022-10-31T09:58:15;43.77;;;20.17;;
3022;SDS011;1521;53.584;9.938;2022-10-31T10:00:44;45.20;;;21.10;;
3022;SDS011;1521;53.584;9.938;2022-10-31T10:05:53;38.50;;;20.63;;
3022;SDS011;1521;53.584;9.938;2022-10-31T10:08:25;38.87;;;20.63;;
3022;SDS011;1521;53.584;9.938;2022-10-31T10:11:08;45.97;;;23.87;;
3022;SDS011;1521;53.584;9.938;2022-10-31T10:13:47;37.33;;;19.33;;
3022;SDS011;1521;53.584;9.938;2022-10-31T10:24:28;44.13;;;20.47;;
3022;SDS011;1521;53.584;9.938;2022-10-31T10:32:56;41.37;;;21.77;;
3022;SDS011;1521;53.584;9.938;2022-10-31T10:35:25;45.80;;;21.37;;
3022;SDS011;1521;53.584;9.938;2022-10-31T10:38:00;49.27;;;20.10;;
3022;SDS011;1521;53.584;9.938;2022-10-31T10:40:34;31.57;;;18.13;;
3022;SDS011;1521;53.584;9.938;2022-10-31T10:45:49;35.17;;;19.77;;
3022;SDS011;1521;53.584;9.938;2022-10-31T10:48:38;42.50;;;20.73;;
3022;SDS011;1521;53.584;9.938;2022-10-31T10:51:22;37.67;;;18.93;;
3022;SDS011;1521;53.584;9.938;2022-10-31T10:54:00;35.20;;;18.50;;
3022;SDS011;1521;53.584;9.938;2022-10-31T10:59:19;35.30;;;17.40;;
3022;SDS011;1521;53.584;9.938;2022-10-31T11:01:48;37.50;;;18.50;;
3022;SDS011;1521;53.584;9.938;2022-10-31T11:04:35;38.70;;;19.27;;
3022;SDS011;1521;53.584;9.938;2022-10-31T11:07:08;37.73;;;19.83;;
3022;SDS011;1521;53.584;9.938;2022-10-31T11:09:34;37.30;;;21.87;;
3022;SDS011;1521;53.584;9.938;2022-10-31T11:14:53;43.37;;;22.30;;
3022;SDS011;1521;53.584;9.938;2022-10-31T11:22:36;35.37;;;19.17;;
3022;SDS011;1521;53.584;9.938;2022-10-31T11:25:14;33.83;;;18.07;;
3022;SDS011;1521;53.584;9.938;2022-10-31T11:28:08;36.90;;;17.40;;
3022;SDS011;1521;53.584;9.938;2022-10-31T11:33:37;32.23;;;17.63;;
3022;SDS011;1521;53.584;9.938;2022-10-31T11:38:46;32.57;;;19.40;;
3022;SDS011;1521;53.584;9.938;2022-10-31T11:41:12;35.40;;;21.10;;
3022;SDS011;1521;53.584;9.938;2022-10-31T11:43:45;43.07;;;20.90;;
3022;SDS011;1521;53.584;9.938;2022-10-31T11:46:41;42.10;;;23.07;;
3022;SDS011;1521;53.584;9.938;2022-10-31T11:51:55;43.07;;;26.00;;
3022;SDS011;1521;53.584;9.938;2022-10-31T11:54:27;45.90;;;30.00;;
3022;SDS011;1521;53.584;9.938;2022-10-31T11:56:57;47.87;;;29.03;;
3022;SDS011;1521;53.584;9.938;2022-10-31T11:59:27;51.63;;;30.27;;
3022;SDS011;1521;53.584;9.938;2022-10-31T12:01:55;49.57;;;31.30;;
3022;SDS011;1521;53.584;9.938;2022-10-31T12:04:40;51.47;;;30.33;;
3022;SDS011;1521;53.584;9.938;2022-10-31T12:07:12;56.90;;;33.53;;
3022;SDS011;1521;53.584;9.938;2022-10-31T12:09:37;57.40;;;33.63;;
3022;SDS011;1521;53.584;9.938;2022-10-31T12:12:20;61.80;;;33.53;;
3022;SDS011;1521;53.584;9.938;2022-10-31T12:15:14;54.53;;;29.93;;
3022;SDS011;1521;53.584;9.938;2022-10-31T12:17:57;56.57;;;30.20;;
3022;SDS011;1521;53.584;9.938;2022-10-31T12:40:07;44.93;;;28.40;;
3022;SDS011;1521;53.584;9.938;2022-10-31T12:43:04;50.20;;;29.73;;
3022;SDS011;1521;53.584;9.938;2022-10-31T12:59:35;40.50;;;23.37;;
3022;SDS011;1521;53.584;9.938;2022-10-31T13:04:48;48.80;;;26.27;;
3022;SDS011;1521;53.584;9.938;2022-10-31T13:07:37;42.30;;;24.23;;
3022;SDS011;1521;53.584;9.938;2022-10-31T13:13:26;36.07;;;22.23;;
3022;SDS011;1521;53.584;9.938;2022-10-31T13:16:01;41.43;;;23.23;;
3022;SDS011;1521;53.584;9.938;2022-10-31T13:18:49;42.33;;;22.17;;
3022;SDS011;1521;53.584;9.938;2022-10-31T13:23:58;40.40;;;21.60;;
3022;SDS011;1521;53.584;9.938;2022-10-31T13:31:34;34.40;;;20.77;;
3022;SDS011;1521;53.584;9.938;2022-10-31T13:34:09;37.53;;;20.70;;
3022;SDS011;1521;53.584;9.938;2022-10-31T13:39:58;32.30;;;19.23;;
3022;SDS011;1521;53.584;9.938;2022-10-31T13:45:16;28.80;;;16.20;;
3022;SDS011;1521;53.584;9.938;2022-10-31T13:47:54;31.50;;;18.20;;
3022;SDS011;1521;53.584;9.938;2022-10-31T13:50:22;29.10;;;17.53;;
3022;SDS011;1521;53.584;9.938;2022-10-31T13:53:03;30.63;;;17.60;;
3022;SDS011;1521;53.584;9.938;2022-10-31T13:55:46;28.83;;;18.77;;
3022;SDS011;1521;53.584;9.938;2022-10-31T13:58:28;30.30;;;18.80;;
3022;SDS011;1521;53.584;9.938;2022-10-31T14:01:04;43.13;;;20.70;;
3022;SDS011;1521;53.584;9.938;2022-10-31T14:03:36;33.80;;;20.27;;
3022;SDS011;1521;53.584;9.938;2022-10-31T14:06:06;32.33;;;20.03;;
3022;SDS011;1521;53.584;9.938;2022-10-31T14:08:35;33.60;;;20.30;;
3022;SDS011;1521;53.584;9.938;2022-10-31T14:11:05;33.60;;;20.13;;
3022;SDS011;1521;53.584;9.938;2022-10-31T14:13:34;33.90;;;19.90;;
3022;SDS011;1521;53.584;9.938;2022-10-31T14:16:06;31.33;;;19.27;;
3022;SDS011;1521;53.584;9.938;2022-10-31T14:18:43;30.40;;;17.67;;
3022;SDS011;1521;53.584;9.938;2022-10-31T14:21:25;27.83;;;16.70;;
3022;SDS011;1521;53.584;9.938;2022-10-31T14:23:54;31.10;;;17.53;;
3022;SDS011;1521;53.584;9.938;2022-10-31T14:28:51;30.10;;;16.80;;
3022;SDS011;1521;53.584;9.938;2022-10-31T14:31:26;25.83;;;15.97;;
3022;SDS011;1521;53.584;9.938;2022-10-31T14:34:23;27.40;;;17.13;;
3022;SDS011;1521;53.584;9.938;2022-10-31T14:37:03;29.13;;;17.47;;
3022;SDS011;1521;53.584;9.938;2022-10-31T14:42:34;26.70;;;16.77;;
3022;SDS011;1521;53.584;9.938;2022-10-31T14:50:56;35.53;;;15.80;;
3022;SDS011;1521;53.584;9.938;2022-10-31T14:53:31;24.83;;;15.20;;
3022;SDS011;1521;53.584;9.938;2022-10-31T14:56:00;27.13;;;15.17;;
3022;SDS011;1521;53.584;9.938;2022-10-31T14:58:43;34.30;;;18.37;;
3022;SDS011;1521;53.584;9.938;2022-10-31T15:04:15;30.77;;;17.47;;
3022;SDS011;1521;53.584;9.938;2022-10-31T15:06:44;30.97;;;17.07;;
3022;SDS011;1521;53.584;9.938;2022-10-31T15:12:26;29.23;;;15.43;;
3022;SDS011;1521;53.584;9.938;2022-10-31T15:14:53;31.90;;;16.47;;
3022;SDS011;1521;53.584;9.938;2022-10-31T15:17:20;31.83;;;18.33;;
3022;SDS011;1521;53.584;9.938;2022-10-31T15:19:47;29.60;;;16.90;;
3022;SDS011;1521;53.584;9.938;2022-10-31T15:22:16;33.03;;;16.87;;
3022;SDS011;1521;53.584;9.938;2022-10-31T15:24:43;29.80;;;16.30;;
3022;SDS011;1521;53.584;9.938;2022-10-31T15:27:11;25.80;;;14.83;;
3022;SDS011;1521;53.584;9.938;2022-10-31T15:29:47;25.40;;;15.50;;
3022;SDS011;1521;53.584;9.938;2022-10-31T15:32:21;28.97;;;16.77;;
3022;SDS011;1521;53.584;9.938;2022-10-31T15:34:49;34.13;;;16.83;;
3022;SDS011;1521;53.584;9.938;2022-10-31T15:37:20;30.90;;;16.57;;
3022;SDS011;1521;53.584;9.938;2022-10-31T15:39:47;34.30;;;17.30;;
3022;SDS011;1521;53.584;9.938;2022-10-31T15:42:25;31.27;;;16.27;;
3022;SDS011;1521;53.584;9.938;2022-10-31T15:47:28;31.47;;;18.37;;
3022;SDS011;1521;53.584;9.938;2022-10-31T15:49:56;32.17;;;16.80;;
3022;SDS011;1521;53.584;9.938;2022-10-31T15:54:50;35.87;;;18.57;;
3022;SDS011;1521;53.584;9.938;2022-10-31T15:57:19;34.20;;;18.33;;
3022;SDS011;1521;53.584;9.938;2022-10-31T15:59:45;29.40;;;17.70;;
3022;SDS011;1521;53.584;9.938;2022-10-31T16:02:13;36.27;;;20.10;;
3022;SDS011;1521;53.584;9.938;2022-10-31T16:05:01;37.27;;;21.03;;
3022;SDS011;1521;53.584;9.938;2022-10-31T16:07:27;34.77;;;20.00;;
3022;SDS011;1521;53.584;9.938;2022-10-31T16:12:25;40.30;;;21.60;;
3022;SDS011;1521;53.584;9.938;2022-10-31T16:15:03;40.93;;;20.20;;
3022;SDS011;1521;53.584;9.938;2022-10-31T16:17:29;42.93;;;20.37;;
3022;SDS011;1521;53.584;9.938;2022-10-31T16:20:00;41.57;;;21.13;;
3022;SDS011;1521;53.584;9.938;2022-10-31T16:22:29;37.63;;;19.60;;
3022;SDS011;1521;53.584;9.938;2022-10-31T16:27:40;36.20;;;19.03;;
3022;SDS011;1521;53.584;9.938;2022-10-31T16:32:54;36.40;;;18.63;;
3022;SDS011;1521;53.584;9.938;2022-10-31T16:35:26;35.97;;;18.47;;
3022;SDS011;1521;53.584;9.938;2022-10-31T16:37:57;31.43;;;15.93;;
3022;SDS011;1521;53.584;9.938;2022-10-31T16:40:22;38.67;;;17.33;;
3022;SDS011;1521;53.584;9.938;2022-10-31T16:42:49;34.60;;;17.80;;
3022;SDS011;1521;53.584;9.938;2022-10-31T16:45:22;32.90;;;17.60;;
3022;SDS011;1521;53.584;9.938;2022-10-31T16:47:49;35.47;;;17.53;;
3022;SDS011;1521;53.584;9.938;2022-10-31T16:50:17;39.20;;;18.20;;
3022;SDS011;1521;53.584;9.938;2022-10-31T16:52:47;34.23;;;16.80;;
3022;SDS011;1521;53.584;9.938;2022-10-31T16:55:14;41.63;;;18.70;;
3022;SDS011;1521;53.584;9.938;2022-10-31T16:57:44;41.73;;;18.53;;
3022;SDS011;1521;53.584;9.938;2022-10-31T17:00:17;38.67;;;18.17;;
3022;SDS011;1521;53.584;9.938;2022-10-31T17:02:45;38.67;;;16.00;;
3022;SDS011;1521;53.584;9.938;2022-10-31T17:05:14;36.60;;;16.93;;
3022;SDS011;1521;53.584;9.938;2022-10-31T17:07:41;34.50;;;17.07;;
3022;SDS011;1521;53.584;9.938;2022-10-31T17:10:06;34.63;;;16.70;;
3022;SDS011;1521;53.584;9.938;2022-10-31T17:12:33;29.30;;;15.27;;
3022;SDS011;1521;53.584;9.938;2022-10-31T17:14:59;31.70;;;15.70;;
3022;SDS011;1521;53.584;9.938;2022-10-31T17:17:25;54.67;;;28.13;;
3022;SDS011;1521;53.584;9.938;2022-10-31T17:19:51;44.03;;;21.73;;
3022;SDS011;1521;53.584;9.938;2022-10-31T17:22:17;39.00;;;18.80;;
3022;SDS011;1521;53.584;9.938;2022-10-31T17:24:43;40.13;;;20.90;;
3022;SDS011;1521;53.584;9.938;2022-10-31T17:27:09;34.97;;;16.87;;
3022;SDS011;1521;53.584;9.938;2022-10-31T17:29:34;37.77;;;18.00;;
3022;SDS011;1521;53.584;9.938;2022-10-31T17:32:00;38.40;;;17.83;;
3022;SDS011;1521;53.584;9.938;2022-10-31T17:34:27;38.80;;;18.00;;
3022;SDS011;1521;53.584;9.938;2022-10-31T17:36:53;38.30;;;17.47;;
3022;SDS011;1521;53.584;9.938;2022-10-31T17:39:19;41.60;;;18.07;;
3022;SDS011;1521;53.584;9.938;2022-10-31T17:41:45;48.30;;;18.30;;
3022;SDS011;1521;53.584;9.938;2022-10-31T17:44:13;64.80;;;25.87;;